Time;durP1;ratioP1;P1;durP2;ratioP2;P2;SDS_P1;SDS_P2;PMS_P1;PMS_P2;Temp;Humidity;BMP_temperature;BMP_pressure;BME280_temperature;BME280_humidity;BME280_pressure;Samples;Min_cycle;Max_cycle;Signal;HPM_P1;HPM_P2
2022/07/02 00:00:25;;;;;;;16.27;11.73;;;;;;;20.49;63.63;99110.73;1370668;85;21040;-70
2022/07/02 00:02:32;;;;;;;10.63;9.53;;;;;;;20.48;63.76;99117.06;1371239;85;20993;-71
2022/07/02 00:04:34;;;;;;;16.75;9.43;;;;;;;20.45;64.05;99115.13;1369085;85;81427;-70
2022/07/02 00:06:37;;;;;;;9.73;8.70;;;;;;;20.39;63.97;99126.75;1371502;85;21049;-71
2022/07/02 00:08:40;;;;;;;9.00;8.10;;;;;;;20.38;64.16;99122.84;1370082;85;81494;-70
2022/07/02 00:10:42;;;;;;;9.53;7.33;;;;;;;20.36;63.91;99127.50;1370924;85;21044;-70
2022/07/02 00:12:44;;;;;;;8.35;7.55;;;;;;;20.36;64.03;99111.44;1370603;85;21088;-71
2022/07/02 00:14:48;;;;;;;9.85;8.83;;;;;;;20.35;63.98;99099.02;1369932;85;81534;-71
2022/07/02 00:16:49;;;;;;;8.65;7.55;;;;;;;20.32;63.96;99100.63;1371015;85;21040;-72
2022/07/02 00:18:50;;;;;;;9.18;8.15;;;;;;;20.28;64.08;99104.55;1371775;85;21008;-71
2022/07/02 00:20:54;;;;;;;9.50;8.55;;;;;;;20.22;64.12;99108.62;1368490;85;80751;-71
2022/07/02 00:22:55;;;;;;;12.80;8.50;;;;;;;20.19;64.09;99103.03;1370592;85;21064;-70
2022/07/02 00:24:56;;;;;;;12.78;7.90;;;;;;;20.15;64.16;99102.94;1370706;85;21025;-73
2022/07/02 00:27:03;;;;;;;31.02;9.08;;;;;;;20.11;64.27;99100.17;1369692;85;82297;-72
2022/07/02 00:29:35;;;;;;;12.95;8.68;;;;;;;20.08;64.23;99108.47;1370201;85;21044;-72
2022/07/02 00:31:38;;;;;;;14.87;8.50;;;;;;;20.02;64.44;99111.66;1370884;85;21084;-71
2022/07/02 00:33:41;;;;;;;9.50;8.78;;;;;;;20.01;64.36;99128.70;1370281;85;80963;-73
2022/07/02 00:35:44;;;;;;;10.75;8.80;;;;;;;20.01;64.35;99132.22;1370561;85;21535;-70
2022/07/02 00:37:47;;;;;;;10.00;9.10;;;;;;;20.01;64.42;99135.39;1370160;85;21555;-71
2022/07/02 00:39:48;;;;;;;10.65;9.65;;;;;;;20.01;64.43;99138.07;1369769;85;81841;-71
2022/07/02 00:41:50;;;;;;;9.88;8.88;;;;;;;20.00;64.43;99140.37;1372771;85;21515;-71
2022/07/02 00:43:52;;;;;;;20.55;9.55;;;;;;;20.00;64.52;99139.05;1371517;85;21547;-71
2022/07/02 00:45:56;;;;;;;11.68;8.83;;;;;;;20.00;64.52;99136.36;1370179;85;81673;-71
2022/07/02 00:47:58;;;;;;;11.35;9.28;;;;;;;20.00;64.52;99133.19;1371517;85;21496;-71
2022/07/02 00:50:04;;;;;;;10.00;9.18;;;;;;;20.01;64.52;99118.00;1370573;85;21527;-71
2022/07/02 00:52:07;;;;;;;9.68;8.75;;;;;;;19.82;64.55;99085.28;1369819;85;80834;-71
2022/07/02 00:54:08;;;;;;;9.70;8.70;;;;;;;20.04;64.57;99116.40;1371179;85;21028;-71
2022/07/02 00:56:09;;;;;;;9.43;8.53;;;;;;;20.05;64.60;99112.75;1348562;86;21560;-71
2022/07/02 00:58:22;;;;;;;14.33;9.98;;;;;;;20.08;64.62;99115.99;1340098;86;80721;-72
2022/07/02 01:00:23;;;;;;;13.18;9.45;;;;;;;20.06;64.60;99108.60;1371521;85;21016;-71
2022/07/02 01:02:25;;;;;;;10.00;9.13;;;;;;;20.01;64.73;99104.63;1371029;85;21008;-72
2022/07/02 01:04:29;;;;;;;18.70;9.28;;;;;;;19.90;64.71;99099.69;1369553;85;81091;-72
2022/07/02 01:06:33;;;;;;;11.53;9.93;;;;;;;19.86;64.84;99094.23;1371179;85;21088;-71
2022/07/02 01:10:54;;;;;;;15.63;10.98;;;;;;;19.72;65.03;99082.00;1390923;84;21096;-71
2022/07/02 01:12:55;;;;;;;13.78;11.40;;;;;;;19.69;65.17;99076.09;1393920;84;21049;-71
2022/07/02 01:14:57;;;;;;;13.43;11.48;;;;;;;19.68;65.24;99071.70;1393120;84;82439;-70
2022/07/02 01:16:58;;;;;;;18.35;11.68;;;;;;;19.64;65.30;99070.27;1392843;84;21091;-71
2022/07/02 01:18:59;;;;;;;13.15;11.85;;;;;;;19.62;65.37;99073.55;1393236;84;21037;-71
2022/07/02 01:21:00;;;;;;;13.80;11.95;;;;;;;19.60;65.41;99072.84;1392474;84;80896;-71
2022/07/02 01:23:01;;;;;;;15.50;12.43;;;;;;;19.57;65.50;99076.12;1392846;84;21048;-71
2022/07/02 01:25:03;;;;;;;14.35;12.75;;;;;;;19.54;65.67;99084.41;1393275;84;21077;-71
2022/07/02 01:27:05;;;;;;;17.02;13.60;;;;;;;19.50;65.70;99084.80;1392508;84;82083;-71
2022/07/02 01:29:07;;;;;;;16.17;14.45;;;;;;;19.47;65.78;99105.12;1391893;84;21028;-71
2022/07/02 01:31:09;;;;;;;15.88;14.28;;;;;;;19.44;65.93;99104.01;1392533;84;21371;-71
2022/07/02 01:33:10;;;;;;;16.15;14.45;;;;;;;19.39;65.98;99117.77;1392589;84;81742;-71
2022/07/02 01:35:11;;;;;;;16.48;14.78;;;;;;;19.34;66.07;99122.16;1393188;84;20982;-70
2022/07/02 01:37:15;;;;;;;20.92;14.75;;;;;;;19.30;66.03;99123.39;1393237;84;21065;-72
2022/07/02 01:39:25;;;;;;;16.65;14.85;;;;;;;19.28;66.20;99129.83;1394050;84;81913;-70
2022/07/02 01:41:38;;;;;;;18.87;13.90;;;;;;;19.25;66.14;99134.10;1399346;84;22219;-72
2022/07/02 01:43:46;;;;;;;17.57;14.95;;;;;;;19.22;66.23;99141.38;1394128;84;21187;-71
2022/07/02 01:45:47;;;;;;;28.10;14.53;;;;;;;19.20;66.29;99139.34;1360018;85;81722;-72
2022/07/02 01:47:48;;;;;;;25.25;16.17;;;;;;;19.19;66.34;99150.98;1394146;84;21136;-72
2022/07/02 01:49:49;;;;;;;24.55;17.77;;;;;;;19.18;66.65;99150.62;1393494;84;20997;-71
2022/07/02 01:51:50;;;;;;;22.65;18.98;;;;;;;19.14;66.62;99143.83;1392354;84;81743;-71
2022/07/02 01:53:50;;;;;;;28.95;18.30;;;;;;;19.10;66.71;99133.02;1391863;84;21036;-72
2022/07/02 01:55:52;;;;;;;30.62;19.55;;;;;;;19.04;66.79;99133.53;1392314;84;21304;-72
2022/07/02 01:57:53;;;;;;;33.90;22.27;;;;;;;19.02;66.85;99139.47;1391692;84;81764;-71
2022/07/02 01:59:54;;;;;;;28.27;21.00;;;;;;;18.97;66.90;99138.52;1393855;84;21009;-71
2022/07/02 02:01:55;;;;;;;32.85;22.25;;;;;;;18.94;67.01;99136.57;1393456;84;21604;-71
2022/07/02 02:03:57;;;;;;;31.87;22.02;;;;;;;18.89;67.07;99136.45;1392695;84;80920;-71
2022/07/02 02:05:58;;;;;;;34.38;22.73;;;;;;;18.86;67.19;99138.02;1393014;84;21029;-71
2022/07/02 02:08:00;;;;;;;33.60;22.90;;;;;;;18.84;67.26;99134.63;1391423;84;21100;-72
2022/07/02 02:10:05;;;;;;;29.92;23.42;;;;;;;18.80;67.43;99132.30;1392548;84;81044;-72
2022/07/02 02:12:09;;;;;;;35.75;24.40;;;;;;;18.73;67.52;99146.63;1393067;84;21006;-72
2022/07/02 02:14:11;;;;;;;40.80;24.23;;;;;;;18.67;67.66;99152.47;1392309;84;21060;-72
2022/07/02 02:16:12;;;;;;;31.87;24.77;;;;;;;18.64;67.77;99158.05;1391940;84;81692;-72
2022/07/02 02:18:13;;;;;;;33.33;25.52;;;;;;;18.59;67.87;99161.56;1393092;84;21088;-72
2022/07/02 02:20:14;;;;;;;35.25;25.30;;;;;;;18.54;67.99;99165.94;1391203;84;20982;-73
2022/07/02 02:22:16;;;;;;;42.65;25.45;;;;;;;18.51;68.42;99171.03;1390825;84;81722;-72
2022/07/02 02:24:17;;;;;;;39.20;25.25;;;;;;;18.44;68.19;99164.48;1393131;84;21158;-72
2022/07/02 02:26:18;;;;;;;35.20;24.95;;;;;;;18.43;68.20;99170.78;1393283;84;21033;-72
2022/07/02 02:28:20;;;;;;;37.58;24.10;;;;;;;18.41;68.33;99178.53;1394309;84;81117;-71
2022/07/02 02:30:21;;;;;;;36.20;25.97;;;;;;;18.39;68.31;99182.66;1392472;85;21102;-71
2022/07/02 02:32:22;;;;;;;39.40;25.05;;;;;;;18.40;68.40;99184.83;1393697;84;21005;-72
2022/07/02 02:34:23;;;;;;;42.30;25.57;;;;;;;18.38;68.35;99181.79;1392824;84;81971;-72
2022/07/02 02:36:24;;;;;;;43.75;26.37;;;;;;;18.37;68.40;99187.25;1393281;84;21392;-72
2022/07/02 02:38:25;;;;;;;39.23;25.08;;;;;;;18.36;68.42;99186.91;1393949;84;21025;-72
2022/07/02 02:40:26;;;;;;;40.63;27.22;;;;;;;18.36;68.60;99182.91;1391905;84;81832;-71
2022/07/02 02:42:27;;;;;;;36.55;26.10;;;;;;;18.34;68.57;99188.33;1394466;84;22200;-70
2022/07/02 02:44:29;;;;;;;42.80;27.45;;;;;;;18.33;68.56;99197.33;1394433;84;21059;-71
2022/07/02 02:46:29;;;;;;;51.30;28.50;;;;;;;18.34;68.65;99194.16;1391992;84;81115;-70
2022/07/02 02:48:31;;;;;;;;;;;;;;;18.33;68.67;99204.00;1395336;84;21303;-71
2022/07/02 02:50:31;;;;;;;;;;;;;;;18.31;68.94;99207.75;1396150;84;20162;-71
2022/07/02 02:52:32;;;;;;;49.20;27.93;;;;;;;18.27;69.02;99206.28;1392421;84;66816;-72
2022/07/02 02:54:33;;;;;;;42.90;28.05;;;;;;;18.25;68.90;99213.08;1393788;84;21029;-71
2022/07/02 02:56:34;;;;;;;36.10;26.45;;;;;;;18.26;68.93;99211.24;1393980;84;21686;-72
2022/07/02 02:58:35;;;;;;;38.55;25.25;;;;;;;18.24;68.95;99211.86;1391579;84;81824;-71
2022/07/02 03:00:38;;;;;;;34.35;25.80;;;;;;;18.24;68.94;99219.87;1394083;84;21544;-71
2022/07/02 03:02:39;;;;;;;34.03;25.52;;;;;;;18.24;69.00;99219.87;1393854;84;21041;-70
2022/07/02 03:04:40;;;;;;;37.20;25.57;;;;;;;18.21;68.96;99217.78;1391923;84;82036;-71
2022/07/02 03:06:41;;;;;;;38.17;26.48;;;;;;;18.18;69.22;99216.69;1393876;84;21017;-70
2022/07/02 03:08:42;;;;;;;41.73;26.17;;;;;;;18.15;69.17;99211.59;1392379;84;89920;-71
2022/07/02 03:10:43;;;;;;;35.75;26.75;;;;;;;18.14;69.18;99209.05;1386781;84;21044;-70
2022/07/02 03:12:44;;;;;;;38.35;25.43;;;;;;;18.12;69.19;99219.80;1379907;84;20992;-71
2022/07/02 03:14:45;;;;;;;40.23;26.87;;;;;;;18.14;69.21;99225.89;1378480;82;82565;-71
2022/07/02 03:16:46;;;;;;;41.60;26.42;;;;;;;18.16;69.24;99229.77;1379148;84;21054;-70
2022/07/02 03:18:47;;;;;;;;;;;;;;;18.15;69.26;99227.59;1382008;84;21008;-71
2022/07/02 03:20:48;;;;;;;39.45;28.00;;;;;;;18.15;69.39;99226.27;1378042;84;67486;-71
2022/07/02 03:22:49;;;;;;;44.98;26.48;;;;;;;18.14;69.24;99223.72;1379442;84;21048;-71
2022/07/02 03:24:50;;;;;;;42.00;29.07;;;;;;;18.11;69.41;99223.92;1379716;84;21642;-71
2022/07/02 03:26:51;;;;;;;36.58;29.30;;;;;;;18.08;69.29;99217.50;1379009;84;81123;-71
2022/07/02 03:28:52;;;;;;;48.63;29.63;;;;;;;18.08;69.32;99223.67;1351679;86;21122;-71
2022/07/02 03:30:53;;;;;;;38.78;26.85;;;;;;;18.07;69.31;99218.45;1377911;84;21130;-71
2022/07/02 03:32:54;;;;;;;34.48;25.68;;;;;;;18.06;69.36;99220.28;1378148;84;81037;-71
2022/07/02 03:34:56;;;;;;;40.78;27.10;;;;;;;18.03;69.33;99216.02;1379860;84;21126;-71
2022/07/02 03:36:57;;;;;;;29.65;19.92;;;;;;;18.03;69.31;99227.19;1377091;84;21036;-71
2022/07/02 03:38:58;;;;;;;25.92;17.32;;;;;;;18.01;69.35;99233.98;1377997;84;81153;-71
2022/07/02 03:40:59;;;;;;;22.77;14.00;;;;;;;17.98;69.35;99236.84;1378484;84;21017;-72
2022/07/02 03:43:00;;;;;;;;;;;;;;;17.97;69.38;99242.30;1381494;84;21028;-73
2022/07/02 03:45:01;;;;;;;14.13;11.38;;;;;;;17.93;69.48;99242.16;1378726;84;67333;-73
2022/07/02 03:47:02;;;;;;;11.55;10.45;;;;;;;17.84;69.52;99247.18;1379025;84;21083;-72
2022/07/02 03:49:03;;;;;;;12.98;10.78;;;;;;;17.85;69.33;99260.89;1378918;84;21005;-73
2022/07/02 03:51:04;;;;;;;14.40;10.58;;;;;;;17.85;69.37;99269.38;1378040;84;82172;-72
2022/07/02 03:53:05;;;;;;;11.85;10.32;;;;;;;17.84;69.35;99269.84;1378777;84;21087;-71
2022/07/02 03:55:08;;;;;;;19.37;10.72;;;;;;;17.83;69.30;99268.63;1378181;84;21071;-71
2022/07/02 03:57:09;;;;;;;13.25;9.23;;;;;;;17.83;69.25;99279.30;1377912;84;81751;-71
2022/07/02 03:59:10;;;;;;;10.48;9.53;;;;;;;17.81;69.43;99287.91;1378959;84;21056;-71
2022/07/02 04:01:11;;;;;;;13.55;10.30;;;;;;;17.74;69.60;99288.83;1378904;84;22274;-71
2022/07/02 04:03:12;;;;;;;11.78;9.50;;;;;;;17.73;69.60;99305.78;1378221;84;80960;-71
2022/07/02 04:05:13;;;;;;;16.48;10.28;;;;;;;17.70;69.62;99302.02;1379138;84;21546;-72
2022/07/02 04:07:14;;;;;;;11.35;8.15;;;;;;;17.69;69.66;99289.64;1378987;84;21285;-71
2022/07/02 04:09:15;;;;;;;9.33;8.63;;;;;;;17.66;69.65;99287.20;1378005;84;82162;-72
2022/07/02 04:11:17;;;;;;;9.30;8.48;;;;;;;17.61;69.73;99285.34;1377950;84;21048;-72
2022/07/02 04:13:18;;;;;;;11.40;7.17;;;;;;;17.58;69.75;99296.23;1378660;84;21036;-71
2022/07/02 04:15:20;;;;;;;8.00;7.37;;;;;;;17.55;69.83;99307.97;1378150;84;81327;-72
2022/07/02 04:17:21;;;;;;;9.60;7.90;;;;;;;17.56;69.83;99295.51;1378309;84;21099;-71
2022/07/02 04:19:22;;;;;;;9.60;7.70;;;;;;;17.55;69.78;99293.30;1378654;84;21059;-71
2022/07/02 04:21:23;;;;;;;9.98;8.30;;;;;;;17.57;69.85;99299.85;1377886;84;81548;-71
2022/07/02 04:23:24;;;;;;;9.33;8.43;;;;;;;17.55;69.84;99294.64;1378397;84;21056;-72
2022/07/02 04:25:25;;;;;;;;;;;;;;;17.53;69.90;99305.41;1381353;84;21032;-72
2022/07/02 04:27:26;;;;;;;9.93;8.73;;;;;;;17.53;70.19;99309.41;1378318;84;67089;-72
2022/07/02 04:29:27;;;;;;;11.43;8.65;;;;;;;17.52;70.05;99312.19;1378864;85;21059;-72
2022/07/02 04:31:28;;;;;;;11.12;7.70;;;;;;;17.52;70.09;99310.86;1379368;84;21697;-72
2022/07/02 04:33:29;;;;;;;8.98;8.28;;;;;;;17.55;70.12;99316.45;1378269;84;80739;-72
2022/07/02 04:35:30;;;;;;;11.88;8.43;;;;;;;17.52;70.16;99315.70;1379087;84;21048;-71
2022/07/02 04:37:32;;;;;;;9.48;8.43;;;;;;;17.52;70.22;99317.52;1378543;84;21468;-71
2022/07/02 04:39:33;;;;;;;10.68;8.33;;;;;;;17.51;70.28;99320.67;1378129;84;80591;-72
2022/07/02 04:41:35;;;;;;;9.63;8.60;;;;;;;17.50;70.35;99319.42;1379608;84;21124;-71
2022/07/02 04:43:36;;;;;;;12.47;9.60;;;;;;;17.49;70.42;99317.25;1379081;84;21016;-71
2022/07/02 04:45:37;;;;;;;10.08;8.93;;;;;;;17.48;70.47;99305.38;1379281;84;81377;-71
2022/07/02 04:47:38;;;;;;;12.82;8.08;;;;;;;17.48;70.53;99311.55;1378977;84;21080;-72
2022/07/02 04:49:39;;;;;;;12.03;9.40;;;;;;;17.46;70.55;99316.61;1378850;84;20992;-72
2022/07/02 04:51:40;;;;;;;10.40;9.40;;;;;;;17.44;70.57;99316.72;1378349;84;81698;-72
2022/07/02 04:53:41;;;;;;;11.83;9.23;;;;;;;17.44;70.66;99322.05;1379680;84;21007;-72
2022/07/02 04:55:42;;;;;;;10.53;9.53;;;;;;;17.44;70.71;99316.72;1378755;84;21000;-72
2022/07/02 04:57:43;;;;;;;11.05;9.60;;;;;;;17.43;70.74;99313.71;1378622;84;81504;-72
2022/07/02 04:59:44;;;;;;;12.10;10.43;;;;;;;17.40;70.74;99317.06;1378908;84;21261;-72
2022/07/02 05:01:46;;;;;;;15.32;9.68;;;;;;;17.39;70.78;99315.34;1378618;84;21013;-71
2022/07/02 05:03:47;;;;;;;12.82;10.18;;;;;;;17.40;70.83;99317.90;1378663;84;81705;-71
2022/07/02 05:05:48;;;;;;;14.58;9.60;;;;;;;17.38;70.80;99318.50;1348270;86;21019;-72
2022/07/02 05:07:49;;;;;;;11.50;10.48;;;;;;;17.39;70.84;99321.55;1378574;84;21032;-72
2022/07/02 05:09:50;;;;;;;12.10;11.03;;;;;;;17.40;70.83;99317.90;1376315;84;81003;-71
2022/07/02 05:11:50;;;;;;;;;;;;;;;17.43;70.88;99321.70;1375711;85;21532;-71
2022/07/02 05:13:51;;;;;;;15.43;10.90;;;;;;;17.44;70.97;99324.72;1371119;85;20211;-71
2022/07/02 05:15:52;;;;;;;14.07;10.48;;;;;;;17.47;70.94;99327.65;1370265;85;81727;-71
2022/07/02 05:17:53;;;;;;;11.53;10.13;;;;;;;17.51;70.90;99335.34;1370954;85;20997;-72
2022/07/02 05:19:54;;;;;;;12.20;10.08;;;;;;;17.53;70.87;99333.39;1370387;85;21064;-72
2022/07/02 05:21:55;;;;;;;15.93;10.63;;;;;;;17.53;70.78;99334.73;1370229;85;81062;-72
2022/07/02 05:23:56;;;;;;;13.38;11.97;;;;;;;17.56;70.81;99343.48;1371220;85;21458;-72
2022/07/02 05:25:57;;;;;;;11.75;10.63;;;;;;;17.57;70.77;99343.38;1370879;85;21013;-72
2022/07/02 05:27:59;;;;;;;12.43;11.12;;;;;;;17.61;70.76;99347.52;1370205;85;81843;-72
2022/07/02 05:29:59;;;;;;;13.88;10.93;;;;;;;17.63;70.81;99351.41;1372008;85;21056;-72
2022/07/02 05:32:01;;;;;;;14.15;12.85;;;;;;;17.64;70.70;99350.42;1371345;85;21548;-72
2022/07/02 05:34:02;;;;;;;15.23;12.45;;;;;;;17.65;70.69;99346.34;1370265;85;81889;-71
2022/07/02 05:36:04;;;;;;;23.62;15.00;;;;;;;17.69;70.71;99353.62;1370976;85;21000;-71
2022/07/02 05:38:05;;;;;;;16.05;14.35;;;;;;;17.72;70.65;99369.39;1371182;85;21564;-72
2022/07/02 05:40:07;;;;;;;18.30;15.03;;;;;;;17.74;70.63;99371.48;1370178;85;81222;-71
2022/07/02 05:42:08;;;;;;;18.23;14.98;;;;;;;17.75;70.65;99370.52;1371419;85;21032;-72
2022/07/02 05:44:09;;;;;;;16.12;14.38;;;;;;;17.78;70.68;99370.30;1371533;85;21056;-71
2022/07/02 05:46:11;;;;;;;18.75;15.43;;;;;;;17.81;70.66;99366.56;1370406;85;81013;-72
2022/07/02 05:48:12;;;;;;;24.87;17.07;;;;;;;17.85;70.61;99372.89;1370786;85;21606;-71
2022/07/02 05:50:13;;;;;;;25.27;17.62;;;;;;;17.88;70.62;99375.33;1370645;85;21044;-71
2022/07/02 05:52:17;;;;;;;30.15;18.62;;;;;;;17.91;70.61;99382.75;1370198;85;81840;-71
2022/07/02 05:54:18;;;;;;;24.37;17.45;;;;;;;17.93;70.60;99387.05;1371587;85;21316;-72
2022/07/02 05:56:19;;;;;;;22.85;18.35;;;;;;;17.95;70.58;99389.59;1372301;85;21579;-71
2022/07/02 05:58:20;;;;;;;22.35;18.05;;;;;;;17.95;70.58;99394.44;1369858;85;81053;-72
2022/07/02 06:00:21;;;;;;;27.50;17.90;;;;;;;17.95;70.55;99393.59;1371925;85;21016;-71
2022/07/02 06:02:23;;;;;;;22.48;17.42;;;;;;;17.95;70.58;99389.59;1348411;86;21093;-71
2022/07/02 06:04:24;;;;;;;25.45;18.05;;;;;;;17.94;70.59;99386.05;1370681;85;82297;-72
2022/07/02 06:08:44;;;;;;;22.15;15.45;;;;;;;17.97;70.58;99404.99;1369896;85;81105;-71
2022/07/02 06:10:45;;;;;;;18.25;15.20;;;;;;;17.99;70.58;99417.26;1371599;85;21053;-70
2022/07/02 06:12:50;;;;;;;12.43;10.65;;;;;;;17.98;70.55;99412.03;1372257;85;21036;-71
2022/07/02 06:14:51;;;;;;;13.95;9.58;;;;;;;17.98;70.53;99421.37;1369431;85;81171;-71
2022/07/02 06:16:52;;;;;;;8.73;8.00;;;;;;;17.91;70.60;99422.75;1373631;85;21096;-73
2022/07/02 06:18:53;;;;;;;11.08;7.40;;;;;;;17.85;70.76;99420.05;1371604;85;21601;-71
2022/07/02 06:20:54;;;;;;;7.33;6.78;;;;;;;17.80;70.69;99426.17;1370224;85;82162;-71
2022/07/02 06:22:55;;;;;;;6.80;6.20;;;;;;;17.76;70.72;99422.02;1370708;85;21060;-72
2022/07/02 06:24:57;;;;;;;9.93;6.08;;;;;;;17.73;70.72;99424.42;1371672;85;21476;-72
2022/07/02 06:26:58;;;;;;;14.90;5.70;;;;;;;17.73;70.71;99428.42;1370722;85;80733;-72
2022/07/02 06:29:00;;;;;;;7.78;5.37;;;;;;;17.73;70.68;99433.75;1371540;85;21591;-72
2022/07/02 06:31:01;;;;;;;7.15;5.92;;;;;;;17.74;70.70;99443.46;1369871;85;21070;-72
2022/07/02 06:33:03;;;;;;;6.78;6.10;;;;;;;17.76;70.76;99442.02;1367887;85;80795;-72
2022/07/02 06:35:04;;;;;;;10.25;8.00;;;;;;;17.76;70.71;99449.53;1371025;85;21099;-72
2022/07/02 06:37:05;;;;;;;9.93;8.93;;;;;;;17.73;70.89;99451.58;1371563;85;21064;-72
2022/07/02 06:39:06;;;;;;;17.48;9.45;;;;;;;17.67;70.99;99456.37;1369820;85;80496;-72
2022/07/02 06:43:27;;;;;;;11.48;9.58;;;;;;;17.60;71.24;99459.09;1370038;85;21033;-71
2022/07/02 06:45:28;;;;;;;13.22;10.05;;;;;;;17.58;71.41;99457.49;1369047;85;80795;-71
2022/07/02 06:47:31;;;;;;;20.48;10.80;;;;;;;17.55;71.50;99459.05;1370790;85;21064;-71
2022/07/02 06:49:33;;;;;;;14.05;12.05;;;;;;;17.55;71.60;99457.72;1370174;85;21634;-72
2022/07/02 06:51:34;;;;;;;16.10;11.80;;;;;;;17.54;71.63;99466.17;1368938;84;82129;-71
2022/07/02 06:53:35;;;;;;;22.93;17.25;;;;;;;17.51;71.68;99465.05;1371064;85;20993;-71
2022/07/02 06:55:36;;;;;;;27.65;18.15;;;;;;;17.50;71.74;99473.55;1370183;85;21372;-71
2022/07/02 06:57:37;;;;;;;33.05;20.65;;;;;;;17.49;71.86;99470.49;1369080;85;81844;-72
2022/07/02 06:59:38;;;;;;;27.10;19.30;;;;;;;17.51;72.01;99470.39;1370105;85;21104;-72
2022/07/02 07:01:39;;;;;;;25.90;18.92;;;;;;;17.54;72.00;99472.83;1370619;85;21076;-71
2022/07/02 07:03:40;;;;;;;26.82;21.57;;;;;;;17.57;72.07;99483.77;1344351;86;81876;-72
2022/07/02 07:05:46;;;;;;;27.40;22.10;;;;;;;17.58;72.15;99482.81;1369274;85;21556;-72
2022/07/02 07:07:44;;;;;;;29.92;22.65;;;;;;;17.59;72.19;99484.53;1367596;85;23541;-72
2022/07/02 07:09:45;;;;;;;30.30;21.68;;;;;;;17.60;72.19;99483.55;1369190;86;81831;-71
2022/07/02 07:11:47;;;;;;;25.32;19.92;;;;;;;17.62;72.24;99484.31;1372759;85;21196;-70
2022/07/02 07:13:49;;;;;;;23.00;19.42;;;;;;;17.63;72.28;99483.36;1376110;84;21064;-71
2022/07/02 07:15:50;;;;;;;27.62;20.68;;;;;;;17.62;72.21;99482.48;1375770;84;82036;-71
2022/07/02 07:17:51;;;;;;;28.45;21.70;;;;;;;17.63;72.28;99486.02;1377997;84;21627;-71
2022/07/02 07:19:52;;;;;;;26.75;21.02;;;;;;;17.65;72.42;99490.75;1351904;86;21009;-72
2022/07/02 07:21:54;;;;;;;27.77;19.82;;;;;;;17.66;72.47;99488.47;1376556;84;80922;-72
2022/07/02 07:23:55;;;;;;;21.48;19.30;;;;;;;17.67;72.47;99494.18;1379294;84;21523;-71
2022/07/02 07:25:56;;;;;;;24.55;18.25;;;;;;;17.66;72.48;99491.97;1378865;84;21004;-72
2022/07/02 07:27:57;;;;;;;26.00;18.12;;;;;;;17.64;72.46;99493.03;1377501;84;81323;-73
2022/07/02 07:29:58;;;;;;;28.32;17.23;;;;;;;17.62;72.51;99500.30;1378368;84;21314;-72
2022/07/02 07:31:59;;;;;;;21.40;15.28;;;;;;;17.60;72.54;99503.53;1377968;84;21134;-72
2022/07/02 07:34:00;;;;;;;23.80;15.45;;;;;;;17.60;72.60;99503.08;1377177;84;81736;-72
2022/07/02 07:36:01;;;;;;;13.43;12.15;;;;;;;17.60;72.61;99500.88;1377525;84;21059;-72
2022/07/02 07:38:02;;;;;;;12.75;11.57;;;;;;;17.60;72.59;99510.20;1377814;84;21044;-72
2022/07/02 07:40:05;;;;;;;9.40;8.20;;;;;;;17.61;72.59;99509.25;1377815;84;81791;-72
2022/07/02 07:42:07;;;;;;;10.50;8.40;;;;;;;17.61;72.51;99514.58;1378113;84;21008;-73
2022/07/02 07:44:08;;;;;;;9.20;8.30;;;;;;;17.49;72.50;99489.64;1378402;84;21087;-71
2022/07/02 07:46:09;;;;;;;13.40;7.10;;;;;;;17.59;72.46;99512.52;1376180;84;80673;-72
2022/07/02 07:48:10;;;;;;;15.13;6.30;;;;;;;17.57;72.37;99510.42;1377355;84;21143;-71
2022/07/02 07:50:12;;;;;;;10.32;6.65;;;;;;;17.59;72.33;99515.18;1379321;84;21020;-71
2022/07/02 07:52:13;;;;;;;12.13;6.45;;;;;;;17.59;72.26;99514.69;1377577;84;80815;-71
2022/07/02 07:54:14;;;;;;;7.53;6.22;;;;;;;17.63;72.27;99520.67;1377541;84;21007;-72
2022/07/02 07:56:17;;;;;;;8.13;6.35;;;;;;;17.66;72.24;99523.97;1378150;84;21020;-72
2022/07/02 07:58:19;;;;;;;6.70;6.10;;;;;;;17.67;72.08;99527.02;1374856;84;80815;-72
2022/07/02 08:00:20;;;;;;;9.43;5.85;;;;;;;17.66;72.02;99529.79;1378544;86;21047;-71
2022/07/02 08:02:21;;;;;;;6.03;5.53;;;;;;;17.64;71.98;99527.69;1377311;84;21079;-72
2022/07/02 08:04:22;;;;;;;5.92;5.42;;;;;;;17.64;71.91;99533.89;1377967;84;80643;-71
2022/07/02 08:06:23;;;;;;;6.05;5.55;;;;;;;17.64;71.91;99531.23;1376709;84;21044;-71
2022/07/02 08:08:24;;;;;;;9.15;4.97;;;;;;;17.64;71.83;99539.23;1377575;84;21020;-71
2022/07/02 08:10:26;;;;;;;9.48;4.92;;;;;;;17.64;71.81;99541.02;1376511;84;80808;-71
2022/07/02 08:12:27;;;;;;;4.85;4.42;;;;;;;17.68;71.76;99544.72;1386670;84;21032;-71
2022/07/02 08:14:28;;;;;;;5.03;4.58;;;;;;;17.71;71.75;99541.00;1393682;84;21005;-72
2022/07/02 08:16:29;;;;;;;5.87;4.97;;;;;;;17.73;71.66;99543.55;1391496;84;81824;-71
2022/07/02 08:18:32;;;;;;;6.15;4.90;;;;;;;17.74;71.56;99550.11;1393426;84;22003;-72
2022/07/02 08:20:33;;;;;;;11.00;5.05;;;;;;;17.70;71.53;99544.61;1392430;84;21321;-73
2022/07/02 08:22:35;;;;;;;5.40;4.90;;;;;;;17.72;71.58;99548.50;1391367;84;81717;-72
2022/07/02 08:24:36;;;;;;;5.37;4.90;;;;;;;17.77;71.58;99543.72;1392957;84;21444;-73
2022/07/02 08:26:37;;;;;;;5.42;4.58;;;;;;;17.83;71.56;99547.28;1392470;84;21049;-71
2022/07/02 08:28:38;;;;;;;6.17;4.15;;;;;;;17.90;71.54;99546.38;1391641;84;80266;-72
2022/07/02 08:30:40;;;;;;;5.10;4.45;;;;;;;17.98;71.48;99548.06;1393094;84;21052;-72
2022/07/02 08:32:41;;;;;;;7.97;5.30;;;;;;;18.02;71.33;99548.22;1393046;84;21089;-74
2022/07/02 08:34:42;;;;;;;4.60;4.20;;;;;;;18.07;71.33;99542.09;1393611;84;81316;-74
2022/07/02 08:36:43;;;;;;;4.47;4.10;;;;;;;18.10;71.23;99542.36;1393431;84;21036;-73
2022/07/02 08:38:44;;;;;;;8.55;4.20;;;;;;;18.14;71.16;99543.85;1392569;84;20998;-72
2022/07/02 08:40:46;;;;;;;4.80;4.40;;;;;;;18.17;71.23;99541.80;1391616;84;80560;-72
2022/07/02 08:42:49;;;;;;;4.58;4.17;;;;;;;18.29;71.12;99548.09;1393693;84;21009;-71
2022/07/02 08:44:52;;;;;;;4.35;3.95;;;;;;;18.35;71.05;99544.98;1391728;84;81609;-73
2022/07/02 08:46:55;;;;;;;4.17;3.77;;;;;;;18.39;70.89;99548.30;1393393;84;21117;-71
2022/07/02 08:48:58;;;;;;;4.85;3.83;;;;;;;18.42;70.85;99553.89;1394277;84;20966;-71
2022/07/02 08:51:00;;;;;;;4.25;3.95;;;;;;;18.45;70.87;99553.17;1392259;84;81572;-72
2022/07/02 08:53:04;;;;;;;7.40;4.37;;;;;;;18.48;70.83;99552.11;1393679;84;21064;-72
2022/07/02 08:55:05;;;;;;;5.00;4.33;;;;;;;18.52;70.82;99553.09;1394626;84;21528;-71
2022/07/02 08:57:10;;;;;;;4.33;3.87;;;;;;;18.58;70.74;99560.30;1394001;84;81612;-72
2022/07/02 08:59:11;;;;;;;4.17;3.85;;;;;;;18.58;70.66;99561.64;1369815;86;21116;-72
2022/07/02 09:01:13;;;;;;;4.95;4.42;;;;;;;18.60;70.64;99562.39;1393568;84;21048;-72
2022/07/02 09:03:18;;;;;;;4.80;4.30;;;;;;;18.62;70.59;99561.79;1391892;84;81749;-72
2022/07/02 09:05:24;;;;;;;4.67;4.28;;;;;;;18.63;70.50;99564.84;1392394;84;21092;-71
2022/07/02 09:07:27;;;;;;;7.92;4.42;;;;;;;18.63;70.46;99571.52;1377544;85;21130;-72
2022/07/02 09:09:30;;;;;;;7.00;3.92;;;;;;;18.61;70.42;99569.42;1392917;84;80628;-71
2022/07/02 09:11:31;;;;;;;7.75;3.92;;;;;;;18.62;70.41;99572.47;1392927;84;21080;-72
2022/07/02 09:13:32;;;;;;;9.00;4.72;;;;;;;18.66;70.51;99571.28;1379453;84;21067;-71
2022/07/02 09:15:35;;;;;;;4.53;4.15;;;;;;;18.69;70.43;99569.25;1379017;84;80795;-73
2022/07/02 09:17:37;;;;;;;8.85;4.33;;;;;;;18.72;70.38;99577.53;1379190;84;22206;-71
2022/07/02 09:19:39;;;;;;;9.53;4.78;;;;;;;18.72;70.38;99570.86;1378625;84;21066;-71
2022/07/02 09:22:00;;;;;;;5.97;4.95;;;;;;;18.70;70.33;99565.59;1375583;84;80593;-71
2022/07/02 09:24:01;;;;;;;6.40;5.50;;;;;;;18.70;70.27;99572.77;1381526;83;21114;-71
2022/07/02 09:26:06;;;;;;;5.67;5.28;;;;;;;18.62;70.17;99579.14;1380707;84;21550;-72
2022/07/02 09:28:07;;;;;;;6.90;5.72;;;;;;;18.54;70.22;99570.37;1377172;84;80690;-72
2022/07/02 09:30:11;;;;;;;6.40;5.70;;;;;;;18.52;70.25;99568.27;1385367;84;21050;-72
2022/07/02 09:32:13;;;;;;;6.75;6.15;;;;;;;18.55;70.35;99575.59;1384215;84;21561;-72